createdAt,value
2023-01-04T00:08:25.543Z,99106.38
2023-01-04T00:18:30.518Z,99106.56
2023-01-04T00:28:33.343Z,99107.13
2023-01-04T00:38:38.489Z,99108.00
2023-01-04T00:48:43.917Z,99109.00
2023-01-04T00:58:54.699Z,99111.06
2023-01-04T01:08:59.471Z,99109.25
2023-01-04T01:19:03.723Z,99109.19
2023-01-04T01:29:07.025Z,99111.06
2023-01-04T01:39:11.989Z,99112.19
2023-01-04T01:49:22.145Z,99113.03
2023-01-04T01:59:28.037Z,99113.94
2023-01-04T02:09:31.732Z,99114.25
2023-01-04T02:20:05.063Z,99117.97
2023-01-04T02:30:38.816Z,99121.97
2023-01-04T02:40:50.031Z,99126.59
2023-01-04T02:50:54.924Z,99131.72
2023-01-04T03:01:26.827Z,99135.78
2023-01-04T03:11:57.240Z,99140.84
2023-01-04T03:22:02.865Z,99140.13
2023-01-04T03:32:29.688Z,99144.72
2023-01-04T03:43:02.056Z,99151.94
2023-01-04T03:53:07.402Z,99160.09
2023-01-04T04:03:12.255Z,99168.78
2023-01-04T04:13:15.282Z,99175.69
2023-01-04T04:23:19.517Z,99183.75
2023-01-04T04:33:22.401Z,99192.22
2023-01-04T04:43:26.658Z,99201.00
2023-01-04T04:53:33.227Z,99211.22
2023-01-04T05:03:38.676Z,99221.66
2023-01-04T05:13:43.448Z,99231.97
2023-01-04T05:23:48.751Z,99242.78
2023-01-04T05:33:52.783Z,99254.44
2023-01-04T05:44:00.636Z,99267.16
2023-01-04T05:54:05.348Z,99278.00
2023-01-04T06:04:11.301Z,99287.88
2023-01-04T06:14:16.345Z,99302.59
2023-01-04T06:24:45.552Z,99311.13
2023-01-04T06:35:26.013Z,99322.53
2023-01-04T06:45:31.289Z,99330.38
2023-01-04T06:55:35.061Z,99343.25
2023-01-04T07:05:39.805Z,99349.69
2023-01-04T07:15:43.147Z,99359.00
2023-01-04T07:25:51.108Z,99370.63
2023-01-04T07:35:55.617Z,99384.91
2023-01-04T07:46:00.902Z,99390.78
2023-01-04T07:56:04.451Z,99404.16
2023-01-04T08:06:12.123Z,99421.69
2023-01-04T08:16:25.794Z,99438.28
2023-01-04T08:26:37.094Z,99446.78
2023-01-04T08:36:48.550Z,99456.69
2023-01-04T08:46:54.074Z,99471.53
2023-01-04T08:56:57.275Z,99489.22
2023-01-04T09:07:02.060Z,99502.25
2023-01-04T09:17:05.190Z,99515.63
2023-01-04T09:27:09.805Z,99527.59
2023-01-04T09:37:12.840Z,99541.56
2023-01-04T09:47:24.230Z,99552.22
2023-01-04T09:57:29.451Z,99560.97
2023-01-04T10:07:35.752Z,99575.50
2023-01-04T10:19:23.609Z,99591.41
2023-01-04T10:28:35.588Z,99596.06
2023-01-04T10:38:41.736Z,99608.53
2023-01-04T10:48:52.768Z,99614.84
2023-01-04T10:59:03.901Z,99627.50
2023-01-04T11:09:25.694Z,99637.78
2023-01-04T11:19:30.917Z,99644.63
2023-01-04T11:29:49.182Z,99652.09
2023-01-04T11:40:31.534Z,99668.16
2023-01-04T12:01:30.367Z,99685.47
2023-01-04T12:11:48.037Z,99696.75
2023-01-04T12:22:47.237Z,99705.66
2023-01-04T12:33:38.780Z,99712.81
2023-01-04T12:45:06.006Z,99713.03
2023-01-04T12:55:48.763Z,99724.53
2023-01-04T13:06:14.132Z,99737.53
2023-01-04T13:17:39.336Z,99751.56
2023-01-04T13:28:13.891Z,99763.88
2023-01-04T13:38:36.767Z,99772.00
2023-01-04T13:48:44.145Z,99780.16
2023-01-04T13:58:49.919Z,99785.75
2023-01-04T14:09:22.147Z,99792.97
2023-01-04T14:19:45.726Z,99799.63
2023-01-04T14:30:20.297Z,99814.59
2023-01-04T14:40:35.254Z,99828.50
2023-01-04T14:50:53.611Z,99834.31
2023-01-04T15:01:00.893Z,99842.00
2023-01-04T15:11:19.326Z,99850.31
2023-01-04T15:21:27.695Z,99857.03
2023-01-04T15:31:40.538Z,99857.25
2023-01-04T15:42:02.493Z,99859.75
2023-01-04T15:52:08.520Z,99860.06
2023-01-04T16:02:13.217Z,99868.41
2023-01-04T16:12:48.661Z,99860.66
2023-01-04T16:23:13.554Z,99865.97
2023-01-04T16:33:53.683Z,99864.22
2023-01-04T16:44:21.650Z,99861.91
2023-01-04T16:54:42.791Z,99866.97
2023-01-04T17:04:59.889Z,99868.88
2023-01-04T17:15:42.851Z,99870.63
2023-01-04T17:25:42.371Z,99874.16
2023-01-04T17:35:52.345Z,99872.03
2023-01-04T17:45:56.587Z,99875.59
2023-01-04T17:56:16.907Z,99874.59
2023-01-04T18:06:33.969Z,99880.78
2023-01-04T18:16:57.677Z,99882.22
2023-01-04T18:27:25.040Z,99884.13
2023-01-04T18:37:36.250Z,99880.06
2023-01-04T18:47:52.940Z,99874.88
2023-01-04T18:57:58.018Z,99879.16
2023-01-04T19:08:02.513Z,99881.78
2023-01-04T19:18:09.448Z,99875.81
2023-01-04T19:28:15.933Z,99874.50
2023-01-04T19:38:21.205Z,99874.63
2023-01-04T19:48:30.931Z,99868.22
2023-01-04T19:58:38.735Z,99861.06
2023-01-04T20:08:45.790Z,99858.59
2023-01-04T20:18:56.892Z,99860.53
2023-01-04T20:29:00.501Z,99853.44
2023-01-04T20:39:05.163Z,99853.09
2023-01-04T20:49:09.408Z,99846.09
2023-01-04T20:59:15.583Z,99842.00
2023-01-04T21:09:18.420Z,99828.94
2023-01-04T21:19:25.571Z,99820.91
2023-01-04T21:29:30.665Z,99818.06
2023-01-04T21:39:35.999Z,99815.56
2023-01-04T21:49:44.037Z,99811.91
2023-01-04T21:59:48.869Z,99807.78
2023-01-04T22:09:57.274Z,99804.16
2023-01-04T22:20:02.023Z,99800.34
2023-01-04T22:30:06.966Z,99795.91
2023-01-04T22:40:13.214Z,99789.88
2023-01-04T22:50:17.156Z,99784.13
2023-01-04T23:00:21.413Z,99778.31
2023-01-04T23:10:27.313Z,99772.72
2023-01-04T23:20:32.266Z,99765.91
2023-01-04T23:30:38.540Z,99759.47
2023-01-04T23:40:48.881Z,99752.38
2023-01-04T23:50:56.964Z,99743.22
